Time;durP1;ratioP1;P1;durP2;ratioP2;P2;SDS_P1;SDS_P2;PMS_P1;PMS_P2;Temp;Humidity;BMP_temperature;BMP_pressure;BME280_temperature;BME280_humidity;BME280_pressure;Samples;Min_cycle;Max_cycle;Signal;HPM_P1;HPM_P2
2023/12/27 00:01:54;;;;;;;9.23;2.70;;;;;;;;;;5085092;28;20489;-67
2023/12/27 00:04:40;;;;;;;7.93;2.25;;;;;;;;;;5088513;28;20036;-67
2023/12/27 00:07:25;;;;;;;10.40;2.55;;;;;;;;;;5076523;28;20032;-67
2023/12/27 00:10:11;;;;;;;9.32;2.28;;;;;;;;;;5081225;28;20047;-66
2023/12/27 00:12:57;;;;;;;15.68;2.10;;;;;;;;;;5081450;28;20378;-67
2023/12/27 00:15:45;;;;;;;13.60;2.13;;;;;;;;;;5093859;28;20101;-66
2023/12/27 00:18:30;;;;;;;9.20;2.55;;;;;;;;;;5074880;28;20489;-65
2023/12/27 00:21:16;;;;;;;16.90;2.22;;;;;;;;;;5079115;28;20513;-65
2023/12/27 00:24:02;;;;;;;12.30;2.88;;;;;;;;;;5082637;28;20110;-66
2023/12/27 00:26:47;;;;;;;18.25;2.35;;;;;;;;;;5084651;28;20107;-66
2023/12/27 00:29:33;;;;;;;15.35;3.53;;;;;;;;;;5093726;28;20074;-67
2023/12/27 00:32:19;;;;;;;10.23;2.47;;;;;;;;;;5092172;28;20147;-65
2023/12/27 00:35:04;;;;;;;15.00;2.38;;;;;;;;;;5087824;28;20500;-66
2023/12/27 00:37:50;;;;;;;18.15;2.45;;;;;;;;;;5082447;28;20028;-66
2023/12/27 00:40:36;;;;;;;13.07;2.63;;;;;;;;;;5087957;28;20051;-66
2023/12/27 00:43:22;;;;;;;7.28;2.47;;;;;;;;;;5084669;28;20112;-67
2023/12/27 00:46:07;;;;;;;6.88;2.35;;;;;;;;;;5084012;28;20063;-66
2023/12/27 00:48:53;;;;;;;6.72;2.05;;;;;;;;;;5080685;28;20063;-65
2023/12/27 00:51:39;;;;;;;17.73;3.03;;;;;;;;;;5073462;28;20032;-67
2023/12/27 00:54:24;;;;;;;12.38;2.53;;;;;;;;;;5079465;28;20016;-66
2023/12/27 00:57:10;;;;;;;17.63;2.42;;;;;;;;;;5084333;28;20061;-66
2023/12/27 00:59:56;;;;;;;12.27;1.95;;;;;;;;;;5083772;28;20032;-66
2023/12/27 01:02:41;;;;;;;15.63;2.10;;;;;;;;;;5091748;28;20052;-66
2023/12/27 01:05:27;;;;;;;12.20;2.33;;;;;;;;;;5077205;28;20084;-66
2023/12/27 01:08:13;;;;;;;9.77;2.05;;;;;;;;;;5078917;28;20028;-67
2023/12/27 01:10:58;;;;;;;8.05;2.45;;;;;;;;;;5072250;28;20029;-66
2023/12/27 01:13:44;;;;;;;8.20;1.92;;;;;;;;;;5078101;28;20027;-66
2023/12/27 01:16:30;;;;;;;11.98;2.55;;;;;;;;;;5075628;28;20028;-67
2023/12/27 01:19:15;;;;;;;9.05;2.45;;;;;;;;;;5073300;28;20029;-67
2023/12/27 01:22:01;;;;;;;13.55;3.03;;;;;;;;;;5071367;28;20032;-66
2023/12/27 01:24:47;;;;;;;11.55;2.47;;;;;;;;;;5058464;28;20028;-67
2023/12/27 01:27:32;;;;;;;14.60;2.20;;;;;;;;;;5062629;28;20028;-67
2023/12/27 01:30:18;;;;;;;8.20;2.47;;;;;;;;;;5084400;28;20505;-66
2023/12/27 01:33:03;;;;;;;11.27;2.47;;;;;;;;;;5087412;28;20103;-66
2023/12/27 01:35:49;;;;;;;14.32;2.00;;;;;;;;;;5092422;28;20050;-67
2023/12/27 01:38:35;;;;;;;12.57;2.45;;;;;;;;;;5091198;28;20032;-67
2023/12/27 01:41:20;;;;;;;7.22;2.35;;;;;;;;;;5091769;28;20111;-66
2023/12/27 01:44:06;;;;;;;11.30;2.22;;;;;;;;;;5088574;28;20069;-66
2023/12/27 01:46:52;;;;;;;12.63;2.67;;;;;;;;;;5083756;28;20043;-66
2023/12/27 01:49:37;;;;;;;8.48;1.90;;;;;;;;;;5074437;28;20508;-66
2023/12/27 01:52:23;;;;;;;4.20;2.20;;;;;;;;;;5091914;28;20028;-65
2023/12/27 01:55:10;;;;;;;17.02;2.50;;;;;;;;;;5092957;28;20032;-67
2023/12/27 01:57:55;;;;;;;23.35;2.67;;;;;;;;;;5067994;28;20039;-67
2023/12/27 02:00:44;;;;;;;7.82;2.72;;;;;;;;;;5072789;28;20021;-67
2023/12/27 02:03:29;;;;;;;11.50;1.92;;;;;;;;;;5086688;28;20024;-67
2023/12/27 02:06:16;;;;;;;10.60;2.78;;;;;;;;;;5085592;28;20032;-67
2023/12/27 02:09:02;;;;;;;10.25;2.95;;;;;;;;;;5075294;28;20429;-68
2023/12/27 02:11:47;;;;;;;9.80;1.88;;;;;;;;;;5058196;28;20025;-68
2023/12/27 02:14:33;;;;;;;5.63;2.25;;;;;;;;;;5082001;28;20028;-67
2023/12/27 02:17:19;;;;;;;7.90;2.03;;;;;;;;;;5074572;28;20060;-67
2023/12/27 02:20:06;;;;;;;11.77;2.70;;;;;;;;;;5071607;28;20525;-67
2023/12/27 02:22:52;;;;;;;5.15;1.83;;;;;;;;;;5086098;28;20028;-67
2023/12/27 02:25:38;;;;;;;18.83;2.38;;;;;;;;;;5094767;28;20520;-67
2023/12/27 02:28:24;;;;;;;9.65;2.47;;;;;;;;;;5067509;28;20402;-67
2023/12/27 02:31:09;;;;;;;17.77;3.25;;;;;;;;;;5077815;28;20025;-67
2023/12/27 02:33:55;;;;;;;9.25;2.45;;;;;;;;;;5095367;28;20028;-67
2023/12/27 02:36:40;;;;;;;9.43;2.13;;;;;;;;;;5080051;28;20024;-69
2023/12/27 02:40:03;;;;;;;5.72;2.45;;;;;;;;;;5082928;22;20742;-70
2023/12/27 02:42:48;;;;;;;12.07;2.70;;;;;;;;;;5053000;28;20112;-70
2023/12/27 02:45:34;;;;;;;12.32;2.97;;;;;;;;;;5045141;28;20025;-70
2023/12/27 02:48:20;;;;;;;6.15;2.10;;;;;;;;;;5056953;28;20029;-70
2023/12/27 02:51:05;;;;;;;4.28;1.80;;;;;;;;;;5044550;28;20021;-70
2023/12/27 02:53:51;;;;;;;8.15;2.70;;;;;;;;;;5052370;28;20028;-70
2023/12/27 02:56:36;;;;;;;9.85;2.00;;;;;;;;;;5037459;28;20451;-70
2023/12/27 02:59:22;;;;;;;10.68;2.50;;;;;;;;;;5043554;28;20116;-71
2023/12/27 03:02:08;;;;;;;14.80;2.45;;;;;;;;;;5047489;28;20032;-70
2023/12/27 03:04:53;;;;;;;5.78;1.70;;;;;;;;;;5041491;28;20036;-70
2023/12/27 03:07:39;;;;;;;13.55;1.98;;;;;;;;;;5035993;28;20067;-70
2023/12/27 03:10:24;;;;;;;7.07;2.05;;;;;;;;;;5041040;28;20513;-70
2023/12/27 03:13:10;;;;;;;6.97;2.03;;;;;;;;;;5040945;28;20017;-70
2023/12/27 03:15:56;;;;;;;5.90;1.52;;;;;;;;;;5040255;28;20033;-70
2023/12/27 03:18:41;;;;;;;12.88;2.28;;;;;;;;;;5040530;28;20032;-71
2023/12/27 03:21:27;;;;;;;12.25;2.20;;;;;;;;;;5040947;28;20521;-70
2023/12/27 03:24:12;;;;;;;13.52;2.25;;;;;;;;;;5034363;28;20462;-70
2023/12/27 03:26:58;;;;;;;4.07;1.85;;;;;;;;;;5041341;28;20018;-70
2023/12/27 03:29:44;;;;;;;6.25;1.92;;;;;;;;;;5044648;28;20036;-70
2023/12/27 03:32:29;;;;;;;6.47;2.22;;;;;;;;;;5043006;28;20035;-70
2023/12/27 03:35:15;;;;;;;10.57;2.15;;;;;;;;;;5034136;28;20029;-70
2023/12/27 03:38:01;;;;;;;13.18;1.90;;;;;;;;;;5049073;28;20039;-70
2023/12/27 03:40:47;;;;;;;9.70;1.98;;;;;;;;;;5045037;28;20025;-70
2023/12/27 03:43:33;;;;;;;8.10;2.53;;;;;;;;;;5053052;28;20605;-71
2023/12/27 03:46:18;;;;;;;9.90;2.67;;;;;;;;;;5052499;28;20028;-70
2023/12/27 03:49:04;;;;;;;7.70;2.42;;;;;;;;;;5051338;28;20036;-70
2023/12/27 03:51:49;;;;;;;9.02;2.40;;;;;;;;;;5052890;28;20017;-70
2023/12/27 03:54:35;;;;;;;13.32;3.13;;;;;;;;;;5049794;28;20431;-70
2023/12/27 03:57:21;;;;;;;7.10;2.30;;;;;;;;;;5045761;28;20056;-70
2023/12/27 04:00:10;;;;;;;8.60;2.28;;;;;;;;;;5034335;28;20033;-70
2023/12/27 04:02:55;;;;;;;7.70;1.63;;;;;;;;;;5032105;28;20029;-70
2023/12/27 04:05:41;;;;;;;4.97;2.53;;;;;;;;;;5048534;28;20433;-70
2023/12/27 04:08:27;;;;;;;9.23;1.80;;;;;;;;;;5037575;28;20017;-70
2023/12/27 04:11:12;;;;;;;7.07;2.53;;;;;;;;;;5047984;28;20025;-70
2023/12/27 04:13:58;;;;;;;11.15;1.88;;;;;;;;;;5039975;28;20021;-70
2023/12/27 04:16:44;;;;;;;8.15;2.53;;;;;;;;;;5046798;28;20021;-70
2023/12/27 04:19:29;;;;;;;10.30;2.97;;;;;;;;;;5051717;28;20024;-70
2023/12/27 04:22:15;;;;;;;9.30;2.08;;;;;;;;;;5052560;28;20024;-70
2023/12/27 04:25:03;;;;;;;4.75;2.22;;;;;;;;;;5049201;28;20043;-70
2023/12/27 04:27:48;;;;;;;7.05;1.92;;;;;;;;;;5051578;28;20028;-70
2023/12/27 04:30:34;;;;;;;8.20;2.00;;;;;;;;;;5052492;28;20062;-70
2023/12/27 04:33:20;;;;;;;6.80;2.10;;;;;;;;;;5047601;28;20032;-70
2023/12/27 04:36:05;;;;;;;6.25;1.92;;;;;;;;;;5036892;28;20048;-69
2023/12/27 04:38:51;;;;;;;10.38;1.55;;;;;;;;;;5052436;28;20033;-70
2023/12/27 04:41:37;;;;;;;6.68;2.55;;;;;;;;;;5043669;28;20083;-70
2023/12/27 04:44:22;;;;;;;10.20;3.00;;;;;;;;;;5037118;28;20383;-70
2023/12/27 04:47:08;;;;;;;8.05;2.97;;;;;;;;;;5016776;28;20033;-70
2023/12/27 04:49:54;;;;;;;4.22;2.08;;;;;;;;;;5045545;28;20414;-70
2023/12/27 04:52:39;;;;;;;8.18;1.52;;;;;;;;;;5048306;28;20032;-70
2023/12/27 04:55:25;;;;;;;12.27;2.00;;;;;;;;;;5051200;28;20083;-70
2023/12/27 04:58:10;;;;;;;11.50;2.20;;;;;;;;;;5050210;28;20110;-70
2023/12/27 05:00:56;;;;;;;5.00;1.70;;;;;;;;;;5049917;28;20033;-70
2023/12/27 05:03:44;;;;;;;8.63;3.13;;;;;;;;;;5039293;28;20446;-70
2023/12/27 05:06:29;;;;;;;6.45;1.65;;;;;;;;;;5044324;28;20035;-70
2023/12/27 05:09:16;;;;;;;6.30;1.58;;;;;;;;;;5040574;28;20018;-70
2023/12/27 05:12:02;;;;;;;4.15;1.65;;;;;;;;;;5049547;28;20044;-69
2023/12/27 05:14:48;;;;;;;13.65;2.40;;;;;;;;;;5050356;28;20025;-70
2023/12/27 05:17:34;;;;;;;4.28;2.45;;;;;;;;;;5046649;28;20020;-70
2023/12/27 05:20:19;;;;;;;6.63;1.80;;;;;;;;;;5052242;28;20513;-70
2023/12/27 05:23:05;;;;;;;6.18;1.88;;;;;;;;;;5043380;28;20090;-70
2023/12/27 05:25:51;;;;;;;10.25;1.90;;;;;;;;;;5031807;28;20075;-70
2023/12/27 05:28:36;;;;;;;13.13;3.30;;;;;;;;;;5051170;28;20512;-70
2023/12/27 05:31:22;;;;;;;9.45;1.92;;;;;;;;;;5050440;28;20100;-70
2023/12/27 05:34:07;;;;;;;9.18;2.38;;;;;;;;;;5052270;28;20017;-70
2023/12/27 05:36:53;;;;;;;9.25;1.55;;;;;;;;;;5049715;28;20498;-70
2023/12/27 05:39:39;;;;;;;7.93;1.70;;;;;;;;;;5053071;28;20039;-70
2023/12/27 05:42:25;;;;;;;9.27;2.15;;;;;;;;;;5044151;28;20087;-70
2023/12/27 05:45:10;;;;;;;4.47;1.75;;;;;;;;;;5037546;28;20036;-70
2023/12/27 05:47:56;;;;;;;9.30;2.65;;;;;;;;;;5044826;28;20517;-71
2023/12/27 05:50:41;;;;;;;7.63;2.80;;;;;;;;;;5051550;28;20041;-70
2023/12/27 05:53:28;;;;;;;8.25;2.00;;;;;;;;;;5034484;28;20022;-70
2023/12/27 05:56:14;;;;;;;4.75;1.77;;;;;;;;;;5031719;28;20025;-70
2023/12/27 05:58:59;;;;;;;5.88;2.13;;;;;;;;;;5053221;28;20048;-70
2023/12/27 06:01:52;;;;;;;5.32;2.05;;;;;;;;;;5052947;28;20112;-69
2023/12/27 06:04:39;;;;;;;6.65;1.65;;;;;;;;;;5022827;28;20033;-70
2023/12/27 06:07:25;;;;;;;4.10;1.70;;;;;;;;;;5055230;28;20021;-70
2023/12/27 06:10:11;;;;;;;4.65;1.77;;;;;;;;;;5035197;28;20487;-70
2023/12/27 06:12:56;;;;;;;7.05;1.50;;;;;;;;;;5045490;28;20375;-70
2023/12/27 06:15:42;;;;;;;5.05;1.33;;;;;;;;;;5055909;28;20017;-71
2023/12/27 06:18:28;;;;;;;10.48;1.70;;;;;;;;;;5045091;28;20376;-69
2023/12/27 06:21:13;;;;;;;8.35;2.55;;;;;;;;;;5036599;28;20022;-70
2023/12/27 06:23:59;;;;;;;7.15;1.77;;;;;;;;;;5041153;28;20037;-71
2023/12/27 06:26:45;;;;;;;9.57;2.17;;;;;;;;;;5052726;28;20032;-70
2023/12/27 06:29:30;;;;;;;5.65;3.00;;;;;;;;;;5045164;28;20351;-70
2023/12/27 06:32:16;;;;;;;15.65;2.78;;;;;;;;;;5053704;28;20150;-70
2023/12/27 06:35:02;;;;;;;5.38;1.52;;;;;;;;;;5043345;28;20061;-70
2023/12/27 06:37:47;;;;;;;12.35;2.10;;;;;;;;;;5049853;28;20483;-70
2023/12/27 06:40:33;;;;;;;8.82;2.05;;;;;;;;;;5043621;28;20033;-70
2023/12/27 06:43:19;;;;;;;5.65;1.90;;;;;;;;;;5038661;28;20030;-70
2023/12/27 06:46:05;;;;;;;5.47;2.05;;;;;;;;;;5046303;28;20053;-70
2023/12/27 06:48:50;;;;;;;9.82;1.92;;;;;;;;;;5040546;28;20399;-70
2023/12/27 06:51:36;;;;;;;6.15;1.80;;;;;;;;;;5055359;28;20116;-69
2023/12/27 06:54:22;;;;;;;5.22;2.35;;;;;;;;;;5053143;28;20029;-70
2023/12/27 06:57:07;;;;;;;9.30;2.40;;;;;;;;;;5038019;28;20083;-69
2023/12/27 06:59:53;;;;;;;8.05;2.53;;;;;;;;;;5035603;28;20128;-70
2023/12/27 07:02:40;;;;;;;16.25;2.28;;;;;;;;;;5050633;28;20051;-70
2023/12/27 07:05:25;;;;;;;6.50;2.53;;;;;;;;;;5055702;28;20368;-70
2023/12/27 07:08:11;;;;;;;11.93;2.22;;;;;;;;;;5054595;28;20122;-70
2023/12/27 07:10:56;;;;;;;3.83;2.00;;;;;;;;;;5053510;28;20022;-70
2023/12/27 07:13:42;;;;;;;6.13;2.22;;;;;;;;;;5049459;28;20051;-69
2023/12/27 07:16:28;;;;;;;9.00;2.38;;;;;;;;;;5035777;28;20033;-69
2023/12/27 07:19:14;;;;;;;5.18;2.35;;;;;;;;;;5039335;28;20095;-70
2023/12/27 07:21:59;;;;;;;6.93;2.80;;;;;;;;;;5044561;28;20063;-69
2023/12/27 07:24:45;;;;;;;2.95;1.77;;;;;;;;;;5037588;28;20029;-69
2023/12/27 07:27:30;;;;;;;5.47;1.95;;;;;;;;;;5054429;28;20029;-70
2023/12/27 07:30:16;;;;;;;17.48;2.95;;;;;;;;;;5054050;28;20477;-70
2023/12/27 07:33:02;;;;;;;7.70;2.45;;;;;;;;;;5035482;28;20390;-69
2023/12/27 07:35:48;;;;;;;7.82;2.10;;;;;;;;;;5048839;28;20028;-70
2023/12/27 07:38:34;;;;;;;10.55;1.98;;;;;;;;;;5037374;28;20079;-70
2023/12/27 07:41:20;;;;;;;9.25;2.28;;;;;;;;;;5042882;28;20040;-73
2023/12/27 07:44:06;;;;;;;9.60;2.67;;;;;;;;;;5038690;28;20034;-68
2023/12/27 07:46:52;;;;;;;7.28;1.70;;;;;;;;;;5035833;28;20047;-68
2023/12/27 07:49:38;;;;;;;8.68;1.85;;;;;;;;;;5045609;28;20025;-70
2023/12/27 07:52:24;;;;;;;7.88;2.15;;;;;;;;;;5049599;28;20024;-69
2023/12/27 07:55:10;;;;;;;6.88;2.08;;;;;;;;;;5052215;28;20083;-71
2023/12/27 07:57:56;;;;;;;9.48;1.73;;;;;;;;;;5037992;28;20036;-69
2023/12/27 08:00:42;;;;;;;22.15;3.42;;;;;;;;;;5046847;28;20104;-70
2023/12/27 08:03:28;;;;;;;13.82;3.03;;;;;;;;;;5037806;28;20474;-69
2023/12/27 08:06:14;;;;;;;11.95;3.00;;;;;;;;;;5051181;28;20398;-69
2023/12/27 08:08:59;;;;;;;7.68;2.05;;;;;;;;;;5037761;28;20032;-72
2023/12/27 08:11:45;;;;;;;14.45;2.70;;;;;;;;;;5041504;28;20521;-70
2023/12/27 08:14:30;;;;;;;4.68;1.88;;;;;;;;;;5054442;28;20036;-69
2023/12/27 08:17:16;;;;;;;14.45;3.17;;;;;;;;;;5039949;28;20136;-69
2023/12/27 08:20:04;;;;;;;11.80;2.72;;;;;;;;;;5044978;28;20090;-69
2023/12/27 08:22:49;;;;;;;19.15;3.35;;;;;;;;;;5043504;28;20025;-71
2023/12/27 08:25:36;;;;;;;4.22;2.28;;;;;;;;;;5039764;28;20055;-71
2023/12/27 08:28:21;;;;;;;6.40;2.67;;;;;;;;;;5046870;28;20032;-69
2023/12/27 08:31:07;;;;;;;12.10;2.05;;;;;;;;;;5030443;28;20043;-70
2023/12/27 08:33:53;;;;;;;5.10;1.98;;;;;;;;;;5045624;28;20111;-73
2023/12/27 08:36:40;;;;;;;8.50;2.28;;;;;;;;;;5046860;28;20061;-70
2023/12/27 08:39:26;;;;;;;3.42;1.95;;;;;;;;;;5043748;28;20107;-70
2023/12/27 08:42:11;;;;;;;5.07;2.78;;;;;;;;;;5049928;28;20029;-69
2023/12/27 08:44:57;;;;;;;10.65;2.83;;;;;;;;;;5041173;28;20030;-69
2023/12/27 08:47:43;;;;;;;3.75;2.45;;;;;;;;;;5048979;28;20031;-69
2023/12/27 08:50:29;;;;;;;15.02;2.38;;;;;;;;;;5050951;28;20025;-69
2023/12/27 08:53:15;;;;;;;4.00;1.73;;;;;;;;;;5048432;28;20100;-68
2023/12/27 08:56:01;;;;;;;3.67;1.88;;;;;;;;;;5043356;28;20037;-69
2023/12/27 08:58:46;;;;;;;4.60;1.80;;;;;;;;;;5046939;28;20094;-70
2023/12/27 09:01:32;;;;;;;3.03;1.70;;;;;;;;;;5042117;28;20033;-70
2023/12/27 09:04:19;;;;;;;9.15;2.50;;;;;;;;;;5043421;28;20478;-70
2023/12/27 09:07:05;;;;;;;4.35;2.20;;;;;;;;;;5035414;28;20061;-70
2023/12/27 09:09:50;;;;;;;6.78;2.20;;;;;;;;;;5038271;28;20490;-71
2023/12/27 09:12:38;;;;;;;4.72;1.92;;;;;;;;;;5044535;28;20025;-70
2023/12/27 09:15:24;;;;;;;8.98;2.78;;;;;;;;;;5043482;28;20018;-70
2023/12/27 09:18:10;;;;;;;8.80;2.58;;;;;;;;;;5042448;28;20710;-70
2023/12/27 09:20:55;;;;;;;11.68;2.75;;;;;;;;;;5041921;28;20040;-71
2023/12/27 09:23:41;;;;;;;5.57;2.17;;;;;;;;;;5054053;28;20482;-71
2023/12/27 09:26:27;;;;;;;11.93;2.60;;;;;;;;;;5051158;28;20102;-69
2023/12/27 09:29:12;;;;;;;7.03;2.05;;;;;;;;;;5047164;28;20021;-69
2023/12/27 09:31:58;;;;;;;6.80;2.70;;;;;;;;;;5039924;28;20464;-70
2023/12/27 09:34:44;;;;;;;7.20;2.17;;;;;;;;;;5049925;28;20028;-70
2023/12/27 09:37:30;;;;;;;6.18;2.33;;;;;;;;;;5060540;28;20029;-70
2023/12/27 09:40:15;;;;;;;5.20;2.25;;;;;;;;;;5053968;28;20071;-70
2023/12/27 09:43:03;;;;;;;8.18;2.40;;;;;;;;;;5045810;28;20120;-69
2023/12/27 09:45:49;;;;;;;7.88;1.90;;;;;;;;;;5050950;28;20029;-74
2023/12/27 09:48:36;;;;;;;11.85;2.95;;;;;;;;;;5039133;28;20490;-70
2023/12/27 09:51:25;;;;;;;3.80;2.25;;;;;;;;;;5032080;28;20056;-71
2023/12/27 09:54:10;;;;;;;8.77;2.88;;;;;;;;;;5054213;28;20482;-71
2023/12/27 09:56:56;;;;;;;10.07;2.60;;;;;;;;;;5050822;28;20029;-70
2023/12/27 09:59:45;;;;;;;8.57;2.72;;;;;;;;;;5043534;28;20032;-70
2023/12/27 10:02:33;;;;;;;7.05;2.72;;;;;;;;;;5046792;28;20036;-69
2023/12/27 10:05:21;;;;;;;8.82;2.35;;;;;;;;;;5043751;28;20094;-70
2023/12/27 10:08:07;;;;;;;11.38;2.88;;;;;;;;;;5051969;28;20044;-70
2023/12/27 10:10:53;;;;;;;10.27;2.85;;;;;;;;;;5045316;28;20033;-70
2023/12/27 10:13:41;;;;;;;10.40;3.00;;;;;;;;;;5055122;28;20020;-71
2023/12/27 10:16:26;;;;;;;8.50;2.45;;;;;;;;;;5048631;28;20029;-72
2023/12/27 10:19:42;;;;;;;19.13;3.85;;;;;;;;;;5046334;28;20036;-74
2023/12/27 10:22:28;;;;;;;13.80;2.78;;;;;;;;;;5024072;28;20036;-70
2023/12/27 10:25:15;;;;;;;14.70;2.75;;;;;;;;;;5052681;28;20037;-70
2023/12/27 10:28:01;;;;;;;14.30;3.75;;;;;;;;;;5046628;28;20044;-72
2023/12/27 10:30:46;;;;;;;8.93;3.00;;;;;;;;;;5036703;28;20033;-71
2023/12/27 10:33:40;;;;;;;21.30;4.30;;;;;;;;;;5043222;28;20108;-70
2023/12/27 10:36:25;;;;;;;10.77;2.88;;;;;;;;;;5032931;28;20542;-70
2023/12/27 10:39:11;;;;;;;15.45;3.45;;;;;;;;;;5047060;28;20506;-71
2023/12/27 10:41:58;;;;;;;10.80;3.10;;;;;;;;;;5051448;28;20111;-70
2023/12/27 10:44:46;;;;;;;13.57;3.60;;;;;;;;;;5048870;28;20021;-70
2023/12/27 10:47:32;;;;;;;9.02;2.40;;;;;;;;;;5045060;28;20063;-69
2023/12/27 10:50:19;;;;;;;5.60;2.78;;;;;;;;;;5041427;28;20021;-70
2023/12/27 10:53:06;;;;;;;13.45;3.45;;;;;;;;;;5044528;28;20022;-70
2023/12/27 10:55:52;;;;;;;7.75;2.47;;;;;;;;;;5033200;28;20037;-70
2023/12/27 10:58:40;;;;;;;13.85;3.63;;;;;;;;;;5031900;28;20508;-70
2023/12/27 11:01:26;;;;;;;6.35;2.42;;;;;;;;;;5047819;28;20033;-70
2023/12/27 11:04:13;;;;;;;12.07;2.30;;;;;;;;;;5045594;28;20094;-70
2023/12/27 11:06:59;;;;;;;10.95;2.58;;;;;;;;;;5039817;28;20061;-70
2023/12/27 11:09:47;;;;;;;7.88;2.47;;;;;;;;;;5023296;28;20036;-72
2023/12/27 11:12:33;;;;;;;8.00;2.50;;;;;;;;;;5029021;28;20034;-72
2023/12/27 11:15:19;;;;;;;6.72;2.42;;;;;;;;;;5047298;28;20115;-72
2023/12/27 11:18:08;;;;;;;9.82;3.08;;;;;;;;;;5044327;28;20067;-71
2023/12/27 11:20:56;;;;;;;6.20;2.80;;;;;;;;;;5038277;28;20041;-70
2023/12/27 11:23:43;;;;;;;8.20;2.92;;;;;;;;;;5023706;28;20028;-70
2023/12/27 11:26:33;;;;;;;9.05;2.40;;;;;;;;;;5036538;28;20521;-72
2023/12/27 11:29:19;;;;;;;12.40;3.35;;;;;;;;;;5024897;28;20033;-75
2023/12/27 11:32:06;;;;;;;11.10;3.03;;;;;;;;;;5044232;28;20028;-71
2023/12/27 11:34:53;;;;;;;13.20;3.10;;;;;;;;;;5039470;28;20056;-71
2023/12/27 11:37:40;;;;;;;6.72;2.70;;;;;;;;;;5029280;28;20032;-74
2023/12/27 11:40:33;;;;;;;13.68;3.53;;;;;;;;;;5048059;28;20098;-72
2023/12/27 11:43:25;;;;;;;11.38;4.03;;;;;;;;;;5029090;28;20402;-73
2023/12/27 11:46:13;;;;;;;11.38;3.20;;;;;;;;;;5028594;28;20054;-71
2023/12/27 11:48:59;;;;;;;10.63;2.65;;;;;;;;;;5041804;28;20067;-71
2023/12/27 11:51:45;;;;;;;16.23;3.83;;;;;;;;;;5031532;28;20037;-72
2023/12/27 11:54:31;;;;;;;10.80;3.20;;;;;;;;;;5048783;28;20466;-72
2023/12/27 11:57:17;;;;;;;13.63;3.42;;;;;;;;;;5028698;28;20025;-73
2023/12/27 12:00:04;;;;;;;7.20;3.08;;;;;;;;;;5040617;28;20093;-73
2023/12/27 12:02:57;;;;;;;15.75;4.03;;;;;;;;;;5029733;28;21000;-73
2023/12/27 12:06:01;;;;;;;13.82;3.78;;;;;;;;;;5028132;28;20049;-74
2023/12/27 12:08:48;;;;;;;10.10;3.42;;;;;;;;;;5037936;28;20490;-79
2023/12/27 12:11:34;;;;;;;7.95;2.90;;;;;;;;;;5025842;28;20034;-69
2023/12/27 12:14:21;;;;;;;5.70;3.67;;;;;;;;;;5049320;28;20037;-72
2023/12/27 12:17:07;;;;;;;12.70;3.92;;;;;;;;;;5032466;28;20052;-72
2023/12/27 12:19:53;;;;;;;9.77;3.33;;;;;;;;;;5034386;28;20032;-71
2023/12/27 12:22:39;;;;;;;6.40;3.65;;;;;;;;;;5040011;28;20082;-71
2023/12/27 12:25:25;;;;;;;14.55;3.72;;;;;;;;;;5042124;28;20501;-71
2023/12/27 12:28:11;;;;;;;14.63;4.22;;;;;;;;;;5050165;28;20029;-71
2023/12/27 12:31:00;;;;;;;5.80;2.90;;;;;;;;;;5045724;28;20032;-71
2023/12/27 12:33:45;;;;;;;7.78;2.47;;;;;;;;;;5039279;28;20044;-73
2023/12/27 12:36:31;;;;;;;11.45;2.63;;;;;;;;;;5043412;28;20032;-73
2023/12/27 12:39:18;;;;;;;10.50;3.40;;;;;;;;;;5044018;28;20029;-71
2023/12/27 12:42:04;;;;;;;10.30;3.03;;;;;;;;;;5046892;28;20025;-72
2023/12/27 12:44:50;;;;;;;15.35;4.18;;;;;;;;;;5029872;28;20028;-72
2023/12/27 12:47:37;;;;;;;6.68;2.80;;;;;;;;;;5031757;28;20049;-71
2023/12/27 12:50:23;;;;;;;15.43;3.80;;;;;;;;;;5028984;28;20430;-70
2023/12/27 12:53:18;;;;;;;11.57;2.90;;;;;;;;;;5047331;28;20032;-71
2023/12/27 12:56:06;;;;;;;5.95;2.83;;;;;;;;;;5044324;28;20494;-71
2023/12/27 12:58:52;;;;;;;5.78;3.05;;;;;;;;;;5035704;28;20520;-70
2023/12/27 13:01:38;;;;;;;9.07;2.95;;;;;;;;;;5049924;28;20032;-70
2023/12/27 13:04:24;;;;;;;11.02;2.40;;;;;;;;;;5037351;28;20021;-70
2023/12/27 13:07:10;;;;;;;8.70;3.13;;;;;;;;;;5053001;28;20047;-70
2023/12/27 13:10:00;;;;;;;12.77;3.58;;;;;;;;;;5056432;28;20397;-70
2023/12/27 13:12:46;;;;;;;12.70;3.25;;;;;;;;;;5060994;28;20074;-70
2023/12/27 13:15:31;;;;;;;7.72;3.15;;;;;;;;;;5053618;28;20029;-70
2023/12/27 13:18:18;;;;;;;10.13;3.42;;;;;;;;;;5053489;28;20024;-71
2023/12/27 13:21:04;;;;;;;12.00;3.33;;;;;;;;;;5054100;28;20025;-70
2023/12/27 13:23:49;;;;;;;7.32;3.63;;;;;;;;;;5052996;28;20138;-70
2023/12/27 13:26:35;;;;;;;14.57;5.65;;;;;;;;;;5049122;28;20571;-70
2023/12/27 13:29:20;;;;;;;17.55;4.80;;;;;;;;;;5049900;28;20020;-70
2023/12/27 13:32:07;;;;;;;6.97;4.35;;;;;;;;;;5051701;28;20021;-70
2023/12/27 13:34:53;;;;;;;13.05;4.80;;;;;;;;;;5052574;28;20052;-70
2023/12/27 13:37:39;;;;;;;11.05;4.50;;;;;;;;;;5065127;28;20020;-70
2023/12/27 13:40:24;;;;;;;13.40;5.60;;;;;;;;;;5044229;28;20028;-71
2023/12/27 13:43:10;;;;;;;9.73;4.10;;;;;;;;;;5051293;28;20111;-70
2023/12/27 13:45:56;;;;;;;8.20;3.67;;;;;;;;;;5052399;28;20079;-70
2023/12/27 13:48:42;;;;;;;10.50;3.47;;;;;;;;;;5044193;28;20547;-70
2023/12/27 13:51:28;;;;;;;12.93;3.92;;;;;;;;;;5055759;28;20032;-70
2023/12/27 13:54:13;;;;;;;16.23;3.92;;;;;;;;;;5053164;28;20020;-70
2023/12/27 13:56:59;;;;;;;11.65;3.75;;;;;;;;;;5053103;28;20021;-70
2023/12/27 13:59:45;;;;;;;14.30;3.85;;;;;;;;;;5053055;28;20051;-70
2023/12/27 14:02:30;;;;;;;13.88;3.63;;;;;;;;;;5068046;28;20085;-70
2023/12/27 14:05:17;;;;;;;19.67;4.25;;;;;;;;;;5072562;28;20481;-70
2023/12/27 14:08:03;;;;;;;11.00;5.10;;;;;;;;;;5057510;28;20397;-70
2023/12/27 14:10:49;;;;;;;8.88;4.20;;;;;;;;;;5067084;28;20103;-70
2023/12/27 14:13:35;;;;;;;12.40;3.00;;;;;;;;;;5058419;28;20074;-70
2023/12/27 14:16:20;;;;;;;7.53;2.83;;;;;;;;;;5050761;28;20030;-71
2023/12/27 14:19:07;;;;;;;14.07;4.43;;;;;;;;;;5022784;28;20487;-70
2023/12/27 14:21:55;;;;;;;8.45;3.78;;;;;;;;;;5041746;28;20487;-70
2023/12/27 14:24:40;;;;;;;12.73;4.25;;;;;;;;;;5028998;28;20021;-70
2023/12/27 14:27:26;;;;;;;17.08;4.38;;;;;;;;;;5042957;28;20101;-70
2023/12/27 14:30:12;;;;;;;8.20;3.47;;;;;;;;;;5045714;28;20024;-70
2023/12/27 14:32:58;;;;;;;18.85;3.72;;;;;;;;;;5038503;28;20072;-71
2023/12/27 14:35:43;;;;;;;10.30;4.18;;;;;;;;;;5039907;28;20116;-71
2023/12/27 14:38:30;;;;;;;8.68;3.13;;;;;;;;;;5041497;28;20096;-70
2023/12/27 14:41:16;;;;;;;9.13;3.58;;;;;;;;;;5052451;28;20545;-70
2023/12/27 14:44:03;;;;;;;13.18;3.67;;;;;;;;;;5047984;28;20033;-69
2023/12/27 14:46:49;;;;;;;14.60;4.03;;;;;;;;;;5049016;28;20088;-70
2023/12/27 14:49:35;;;;;;;8.07;3.80;;;;;;;;;;5045421;28;20482;-70
2023/12/27 14:52:20;;;;;;;14.35;4.32;;;;;;;;;;5057092;28;20024;-67
2023/12/27 14:55:08;;;;;;;10.52;3.83;;;;;;;;;;5048526;28;20021;-69
2023/12/27 14:57:54;;;;;;;12.20;3.92;;;;;;;;;;5054302;28;20068;-69
2023/12/27 15:00:39;;;;;;;15.23;3.70;;;;;;;;;;5055120;28;20482;-70
2023/12/27 15:03:25;;;;;;;14.73;3.45;;;;;;;;;;5057419;28;20028;-69
2023/12/27 15:06:11;;;;;;;13.45;3.92;;;;;;;;;;5063394;28;20024;-70
2023/12/27 15:08:57;;;;;;;6.82;2.90;;;;;;;;;;5054559;28;20053;-70
2023/12/27 15:11:43;;;;;;;6.90;2.67;;;;;;;;;;5053842;28;20029;-70
2023/12/27 15:14:28;;;;;;;7.47;3.47;;;;;;;;;;5069066;28;20028;-70
2023/12/27 15:17:14;;;;;;;13.55;2.80;;;;;;;;;;5069180;28;20017;-70
2023/12/27 15:20:00;;;;;;;11.02;4.13;;;;;;;;;;5034430;28;20115;-69
2023/12/27 15:22:46;;;;;;;12.52;3.08;;;;;;;;;;5038290;28;20116;-69
2023/12/27 15:25:31;;;;;;;6.63;2.65;;;;;;;;;;5020479;28;20042;-70
2023/12/27 15:28:18;;;;;;;3.65;1.83;;;;;;;;;;5034637;28;20124;-70
2023/12/27 15:31:03;;;;;;;3.28;1.92;;;;;;;;;;5033515;28;20115;-69
2023/12/27 15:33:49;;;;;;;9.05;2.13;;;;;;;;;;5046149;28;20017;-69
2023/12/27 15:36:38;;;;;;;10.65;2.63;;;;;;;;;;5054234;28;20059;-70
2023/12/27 15:39:23;;;;;;;7.93;2.35;;;;;;;;;;5047296;28;20096;-70
2023/12/27 15:42:09;;;;;;;5.32;1.90;;;;;;;;;;5034214;28;20028;-69
2023/12/27 15:44:55;;;;;;;9.13;1.98;;;;;;;;;;5047733;28;20112;-69
2023/12/27 15:47:44;;;;;;;5.18;2.08;;;;;;;;;;5038977;28;20028;-69
2023/12/27 15:50:30;;;;;;;15.35;2.45;;;;;;;;;;5027846;28;20048;-69
2023/12/27 15:53:16;;;;;;;3.08;1.80;;;;;;;;;;5049741;28;20052;-69
2023/12/27 15:56:02;;;;;;;5.28;2.17;;;;;;;;;;5066828;28;20111;-69
2023/12/27 15:58:48;;;;;;;5.85;1.98;;;;;;;;;;5073376;28;20374;-69
2023/12/27 16:01:37;;;;;;;6.18;1.95;;;;;;;;;;5057581;28;20086;-70
2023/12/27 16:04:23;;;;;;;4.20;1.90;;;;;;;;;;5048843;28;20055;-69
2023/12/27 16:07:08;;;;;;;4.63;1.52;;;;;;;;;;5068003;28;20074;-69
2023/12/27 16:09:55;;;;;;;6.22;1.45;;;;;;;;;;5051265;28;20071;-69
2023/12/27 16:12:40;;;;;;;2.20;1.88;;;;;;;;;;5053861;28;20025;-69
2023/12/27 16:15:27;;;;;;;3.72;1.85;;;;;;;;;;5054388;28;20048;-69
2023/12/27 16:18:13;;;;;;;5.72;1.42;;;;;;;;;;5051476;28;20054;-69
2023/12/27 16:21:00;;;;;;;5.10;2.05;;;;;;;;;;5037832;28;20021;-69
2023/12/27 16:23:46;;;;;;;5.68;1.90;;;;;;;;;;5048549;28;20022;-69
2023/12/27 16:26:31;;;;;;;2.58;1.42;;;;;;;;;;5033979;28;20021;-69
2023/12/27 16:29:19;;;;;;;5.82;2.22;;;;;;;;;;5057767;28;20052;-70
2023/12/27 16:32:05;;;;;;;5.10;2.28;;;;;;;;;;5071688;28;20107;-70